sensor_id;sensor_type;location;lat;lon;timestamp;pressure;altitude;pressure_sealevel;temperature;humidity
47082;BME280;33066;49.296;14.470;2023-02-02T00:00:53;96755.20;;;5.96;44.20
47082;BME280;33066;49.296;14.470;2023-02-02T00:03:19;96749.76;;;6.00;44.12
47082;BME280;33066;49.296;14.470;2023-02-02T00:05:45;96737.24;;;6.06;43.94
47082;BME280;33066;49.296;14.470;2023-02-02T00:08:10;96753.46;;;5.92;44.42
47082;BME280;33066;49.296;14.470;2023-02-02T00:10:35;96762.05;;;6.01;44.34
47082;BME280;33066;49.296;14.470;2023-02-02T00:13:01;96765.46;;;6.04;44.33
47082;BME280;33066;49.296;14.470;2023-02-02T00:15:26;96765.55;;;6.15;44.30
47082;BME280;33066;49.296;14.470;2023-02-02T00:17:51;96768.75;;;6.28;44.15
47082;BME280;33066;49.296;14.470;2023-02-02T00:20:17;96770.89;;;6.37;44.02
47082;BME280;33066;49.296;14.470;2023-02-02T00:22:43;96767.31;;;6.30;44.21
47082;BME280;33066;49.296;14.470;2023-02-02T00:25:09;96763.43;;;6.29;44.31
47082;BME280;33066;49.296;14.470;2023-02-02T00:27:34;96770.99;;;6.45;44.15
47082;BME280;33066;49.296;14.470;2023-02-02T00:29:59;96776.07;;;6.71;43.81
47082;BME280;33066;49.296;14.470;2023-02-02T00:32:25;96771.47;;;6.94;43.42
47082;BME280;33066;49.296;14.470;2023-02-02T00:34:50;96776.35;;;6.62;43.37
47082;BME280;33066;49.296;14.470;2023-02-02T00:37:16;96774.27;;;7.01;43.30
47082;BME280;33066;49.296;14.470;2023-02-02T00:39:41;96778.39;;;6.93;43.21
47082;BME280;33066;49.296;14.470;2023-02-02T00:42:08;96785.79;;;7.04;42.81
47082;BME280;33066;49.296;14.470;2023-02-02T00:44:33;96783.59;;;7.13;42.85
47082;BME280;33066;49.296;14.470;2023-02-02T00:46:58;96783.45;;;6.96;42.53
47082;BME280;33066;49.296;14.470;2023-02-02T00:49:23;96778.76;;;7.06;42.44
47082;BME280;33066;49.296;14.470;2023-02-02T00:51:49;96780.02;;;7.18;42.31
47082;BME280;33066;49.296;14.470;2023-02-02T00:54:15;96778.39;;;7.24;41.97
47082;BME280;33066;49.296;14.470;2023-02-02T00:56:40;96773.04;;;7.24;41.94
47082;BME280;33066;49.296;14.470;2023-02-02T00:59:06;96777.72;;;7.26;41.78
47082;BME280;33066;49.296;14.470;2023-02-02T01:01:31;96777.40;;;7.24;41.86
47082;BME280;33066;49.296;14.470;2023-02-02T01:03:57;96772.10;;;7.62;41.73
47082;BME280;33066;49.296;14.470;2023-02-02T01:06:22;96776.49;;;7.50;41.41
47082;BME280;33066;49.296;14.470;2023-02-02T01:08:48;96778.03;;;7.60;41.25
47082;BME280;33066;49.296;14.470;2023-02-02T01:11:13;96780.01;;;7.30;41.17
47082;BME280;33066;49.296;14.470;2023-02-02T01:13:39;96785.16;;;7.62;40.87
47082;BME280;33066;49.296;14.470;2023-02-02T01:16:05;96785.12;;;7.52;40.81
47082;BME280;33066;49.296;14.470;2023-02-02T01:18:30;96787.16;;;7.31;40.85
47082;BME280;33066;49.296;14.470;2023-02-02T01:20:57;96783.93;;;7.44;40.98
47082;BME280;33066;49.296;14.470;2023-02-02T01:23:21;96781.37;;;7.06;40.96
47082;BME280;33066;49.296;14.470;2023-02-02T01:25:52;96784.32;;;7.23;41.07
47082;BME280;33066;49.296;14.470;2023-02-02T01:28:12;96781.98;;;7.04;41.04
47082;BME280;33066;49.296;14.470;2023-02-02T01:30:37;96788.15;;;6.98;40.91
47082;BME280;33066;49.296;14.470;2023-02-02T01:33:03;96785.98;;;7.14;41.05
47082;BME280;33066;49.296;14.470;2023-02-02T01:35:28;96784.83;;;6.93;40.98
47082;BME280;33066;49.296;14.470;2023-02-02T01:37:54;96780.99;;;7.21;41.02
47082;BME280;33066;49.296;14.470;2023-02-02T01:40:19;96794.30;;;7.24;41.14
47082;BME280;33066;49.296;14.470;2023-02-02T01:42:45;96789.09;;;7.17;41.07
47082;BME280;33066;49.296;14.470;2023-02-02T01:45:19;96787.97;;;7.08;41.37
47082;BME280;33066;49.296;14.470;2023-02-02T01:47:38;96788.42;;;7.25;41.44
47082;BME280;33066;49.296;14.470;2023-02-02T01:50:02;96788.33;;;6.88;41.51
47082;BME280;33066;49.296;14.470;2023-02-02T01:52:28;96788.46;;;7.42;41.43
47082;BME280;33066;49.296;14.470;2023-02-02T01:54:58;96791.42;;;7.20;41.75
47082;BME280;33066;49.296;14.470;2023-02-02T01:57:28;96787.10;;;7.03;41.47
47082;BME280;33066;49.296;14.470;2023-02-02T01:59:46;96790.56;;;7.34;41.45
47082;BME280;33066;49.296;14.470;2023-02-02T02:02:09;96791.69;;;7.45;41.28
47082;BME280;33066;49.296;14.470;2023-02-02T02:04:34;96798.57;;;7.20;41.56
47082;BME280;33066;49.296;14.470;2023-02-02T02:07:01;96797.31;;;7.33;41.41
47082;BME280;33066;49.296;14.470;2023-02-02T02:09:25;96802.33;;;7.51;41.23
47082;BME280;33066;49.296;14.470;2023-02-02T02:11:52;96805.46;;;7.91;41.19
47082;BME280;33066;49.296;14.470;2023-02-02T02:14:16;96806.03;;;7.69;40.87
47082;BME280;33066;49.296;14.470;2023-02-02T02:16:53;96811.67;;;7.68;40.82
47082;BME280;33066;49.296;14.470;2023-02-02T02:19:18;96814.26;;;7.62;40.82
47082;BME280;33066;49.296;14.470;2023-02-02T02:21:43;96816.93;;;7.69;40.75
47082;BME280;33066;49.296;14.470;2023-02-02T02:26:50;96816.09;;;7.84;40.80
47082;BME280;33066;49.296;14.470;2023-02-02T02:29:04;96814.05;;;8.04;40.46
47082;BME280;33066;49.296;14.470;2023-02-02T02:33:45;96816.72;;;7.98;40.30
47082;BME280;33066;49.296;14.470;2023-02-02T02:36:13;96810.76;;;8.00;40.44
47082;BME280;33066;49.296;14.470;2023-02-02T02:38:37;96808.77;;;7.93;40.09
47082;BME280;33066;49.296;14.470;2023-02-02T02:41:00;96800.20;;;7.71;40.20
47082;BME280;33066;49.296;14.470;2023-02-02T02:43:26;96795.35;;;7.98;40.01
47082;BME280;33066;49.296;14.470;2023-02-02T02:45:48;96787.51;;;7.76;40.08
47082;BME280;33066;49.296;14.470;2023-02-02T02:48:13;96786.46;;;7.58;40.07
47082;BME280;33066;49.296;14.470;2023-02-02T02:50:38;96785.39;;;7.50;40.33
47082;BME280;33066;49.296;14.470;2023-02-02T02:53:07;96781.07;;;7.47;40.32
47082;BME280;33066;49.296;14.470;2023-02-02T02:55:36;96775.92;;;7.44;40.37
47082;BME280;33066;49.296;14.470;2023-02-02T02:58:04;96776.01;;;7.42;40.27
47082;BME280;33066;49.296;14.470;2023-02-02T03:00:37;96777.95;;;7.38;40.02
47082;BME280;33066;49.296;14.470;2023-02-02T03:02:50;96776.98;;;7.42;39.95
47082;BME280;33066;49.296;14.470;2023-02-02T03:05:22;96778.65;;;7.86;39.89
47082;BME280;33066;49.296;14.470;2023-02-02T03:07:41;96789.31;;;7.32;39.89
47082;BME280;33066;49.296;14.470;2023-02-02T03:10:03;96788.84;;;7.46;39.88
47082;BME280;33066;49.296;14.470;2023-02-02T03:12:28;96788.25;;;7.51;39.73
47082;BME280;33066;49.296;14.470;2023-02-02T03:14:54;96790.38;;;7.63;39.51
47082;BME280;33066;49.296;14.470;2023-02-02T03:17:19;96796.28;;;7.64;39.63
47082;BME280;33066;49.296;14.470;2023-02-02T03:19:44;96795.35;;;7.69;39.22
47082;BME280;33066;49.296;14.470;2023-02-02T03:22:10;96792.66;;;7.70;39.23
47082;BME280;33066;49.296;14.470;2023-02-02T03:24:35;96787.82;;;7.74;39.35
47082;BME280;33066;49.296;14.470;2023-02-02T03:27:01;96791.21;;;7.71;39.07
47082;BME280;33066;49.296;14.470;2023-02-02T03:29:27;96796.67;;;7.77;39.20
47082;BME280;33066;49.296;14.470;2023-02-02T03:31:52;96799.44;;;7.52;39.42
47082;BME280;33066;49.296;14.470;2023-02-02T03:34:17;96800.99;;;7.51;39.56
47082;BME280;33066;49.296;14.470;2023-02-02T03:36:43;96797.46;;;7.80;39.85
47082;BME280;33066;49.296;14.470;2023-02-02T03:39:08;96794.93;;;7.76;39.59
47082;BME280;33066;49.296;14.470;2023-02-02T03:41:34;96796.79;;;7.81;39.35
47082;BME280;33066;49.296;14.470;2023-02-02T03:43:59;96796.46;;;7.74;39.07
47082;BME280;33066;49.296;14.470;2023-02-02T03:46:25;96795.98;;;7.55;39.31
47082;BME280;33066;49.296;14.470;2023-02-02T03:48:50;96789.25;;;7.76;38.88
47082;BME280;33066;49.296;14.470;2023-02-02T03:51:16;96792.58;;;7.53;39.12
47082;BME280;33066;49.296;14.470;2023-02-02T03:53:42;96795.49;;;7.68;39.06
47082;BME280;33066;49.296;14.470;2023-02-02T03:56:07;96788.82;;;7.77;38.85
47082;BME280;33066;49.296;14.470;2023-02-02T03:58:32;96789.45;;;7.68;38.90
47082;BME280;33066;49.296;14.470;2023-02-02T04:01:02;96790.62;;;7.55;38.94
47082;BME280;33066;49.296;14.470;2023-02-02T04:03:23;96791.76;;;7.58;38.89
47082;BME280;33066;49.296;14.470;2023-02-02T04:05:49;96791.36;;;7.57;38.89
47082;BME280;33066;49.296;14.470;2023-02-02T04:08:14;96797.56;;;7.72;38.96
47082;BME280;33066;49.296;14.470;2023-02-02T04:13:00;96793.61;;;7.70;38.50
47082;BME280;33066;49.296;14.470;2023-02-02T04:15:26;96790.51;;;7.59;38.45
47082;BME280;33066;49.296;14.470;2023-02-02T04:17:51;96792.08;;;8.14;38.44
47082;BME280;33066;49.296;14.470;2023-02-02T04:20:17;96790.95;;;8.07;38.35
47082;BME280;33066;49.296;14.470;2023-02-02T04:22:42;96789.98;;;8.05;38.39
47082;BME280;33066;49.296;14.470;2023-02-02T04:25:08;96792.31;;;7.87;38.55
47082;BME280;33066;49.296;14.470;2023-02-02T04:27:33;96790.77;;;7.68;38.33
47082;BME280;33066;49.296;14.470;2023-02-02T04:29:59;96794.19;;;7.93;38.32
47082;BME280;33066;49.296;14.470;2023-02-02T04:32:24;96793.08;;;7.85;38.26
47082;BME280;33066;49.296;14.470;2023-02-02T04:34:50;96798.81;;;8.08;38.26
47082;BME280;33066;49.296;14.470;2023-02-02T04:37:15;96801.06;;;7.67;38.25
47082;BME280;33066;49.296;14.470;2023-02-02T04:39:41;96801.35;;;7.94;37.94
47082;BME280;33066;49.296;14.470;2023-02-02T04:42:06;96800.38;;;7.92;38.03
47082;BME280;33066;49.296;14.470;2023-02-02T04:44:32;96798.51;;;8.04;37.75
47082;BME280;33066;49.296;14.470;2023-02-02T04:46:57;96800.66;;;7.73;37.93
47082;BME280;33066;49.296;14.470;2023-02-02T04:49:23;96803.08;;;7.57;38.01
47082;BME280;33066;49.296;14.470;2023-02-02T04:51:48;96802.18;;;7.56;37.80
47082;BME280;33066;49.296;14.470;2023-02-02T04:54:14;96807.09;;;7.80;37.84
47082;BME280;33066;49.296;14.470;2023-02-02T04:56:39;96809.43;;;7.82;38.17
47082;BME280;33066;49.296;14.470;2023-02-02T04:59:05;96815.30;;;7.79;37.85
47082;BME280;33066;49.296;14.470;2023-02-02T05:01:30;96820.97;;;7.70;37.80
47082;BME280;33066;49.296;14.470;2023-02-02T05:03:56;96821.92;;;7.34;37.88
47082;BME280;33066;49.296;14.470;2023-02-02T05:06:21;96825.75;;;7.51;38.06
47082;BME280;33066;49.296;14.470;2023-02-02T05:08:47;96827.59;;;7.58;37.78
47082;BME280;33066;49.296;14.470;2023-02-02T05:11:17;96827.42;;;7.41;37.96
47082;BME280;33066;49.296;14.470;2023-02-02T05:13:38;96829.01;;;7.50;39.00
47082;BME280;33066;49.296;14.470;2023-02-02T05:16:04;96834.32;;;7.54;38.95
47082;BME280;33066;49.296;14.470;2023-02-02T05:18:29;96842.90;;;7.56;38.55
47082;BME280;33066;49.296;14.470;2023-02-02T05:20:54;96843.92;;;7.24;38.31
47082;BME280;33066;49.296;14.470;2023-02-02T05:23:20;96848.13;;;7.33;38.40
47082;BME280;33066;49.296;14.470;2023-02-02T05:25:51;96848.35;;;7.28;38.50
47082;BME280;33066;49.296;14.470;2023-02-02T05:28:11;96850.44;;;7.50;39.05
47082;BME280;33066;49.296;14.470;2023-02-02T05:30:38;96853.49;;;7.30;39.52
47082;BME280;33066;49.296;14.470;2023-02-02T05:33:02;96852.59;;;7.41;38.65
47082;BME280;33066;49.296;14.470;2023-02-02T05:35:27;96861.45;;;7.40;38.81
47082;BME280;33066;49.296;14.470;2023-02-02T05:37:53;96859.84;;;7.20;38.71
47082;BME280;33066;49.296;14.470;2023-02-02T05:40:18;96864.97;;;7.20;38.88
47082;BME280;33066;49.296;14.470;2023-02-02T05:42:47;96867.84;;;7.27;38.64
47082;BME280;33066;49.296;14.470;2023-02-02T05:45:10;96874.37;;;7.29;39.28
47082;BME280;33066;49.296;14.470;2023-02-02T05:47:35;96873.18;;;7.31;39.12
47082;BME280;33066;49.296;14.470;2023-02-02T05:50:00;96874.54;;;7.35;39.17
47082;BME280;33066;49.296;14.470;2023-02-02T05:52:31;96872.90;;;7.31;39.51
47082;BME280;33066;49.296;14.470;2023-02-02T05:54:51;96876.75;;;7.24;39.08
47082;BME280;33066;49.296;14.470;2023-02-02T05:57:17;96879.37;;;7.18;39.73
47082;BME280;33066;49.296;14.470;2023-02-02T05:59:42;96871.40;;;7.46;39.55
47082;BME280;33066;49.296;14.470;2023-02-02T06:02:08;96872.17;;;6.92;39.17
47082;BME280;33066;49.296;14.470;2023-02-02T06:04:33;96872.52;;;6.97;39.05
47082;BME280;33066;49.296;14.470;2023-02-02T06:06:59;96874.66;;;7.27;38.72
47082;BME280;33066;49.296;14.470;2023-02-02T06:09:24;96872.16;;;7.35;38.31
47082;BME280;33066;49.296;14.470;2023-02-02T06:11:50;96883.82;;;7.35;38.89
47082;BME280;33066;49.296;14.470;2023-02-02T06:14:15;96883.79;;;7.05;38.97
47082;BME280;33066;49.296;14.470;2023-02-02T06:16:41;96888.75;;;6.78;39.24
47082;BME280;33066;49.296;14.470;2023-02-02T06:19:06;96893.04;;;7.02;39.10
47082;BME280;33066;49.296;14.470;2023-02-02T06:21:32;96891.96;;;6.99;39.41
47082;BME280;33066;49.296;14.470;2023-02-02T06:23:58;96889.45;;;6.86;39.41
47082;BME280;33066;49.296;14.470;2023-02-02T06:26:24;96892.56;;;6.82;39.51
47082;BME280;33066;49.296;14.470;2023-02-02T06:28:50;96895.23;;;6.99;39.40
47082;BME280;33066;49.296;14.470;2023-02-02T06:31:14;96892.46;;;6.84;39.68
47082;BME280;33066;49.296;14.470;2023-02-02T06:33:40;96902.46;;;6.83;39.69
47082;BME280;33066;49.296;14.470;2023-02-02T06:36:06;96898.10;;;6.82;39.68
47082;BME280;33066;49.296;14.470;2023-02-02T06:38:31;96898.43;;;6.41;39.73
47082;BME280;33066;49.296;14.470;2023-02-02T06:40:58;96898.91;;;6.56;39.77
47082;BME280;33066;49.296;14.470;2023-02-02T06:43:22;96910.73;;;6.64;39.80
47082;BME280;33066;49.296;14.470;2023-02-02T06:45:47;96904.54;;;6.43;40.14
47082;BME280;33066;49.296;14.470;2023-02-02T06:48:12;96903.27;;;6.25;40.23
47082;BME280;33066;49.296;14.470;2023-02-02T06:50:38;96904.88;;;6.28;40.40
47082;BME280;33066;49.296;14.470;2023-02-02T06:53:04;96904.35;;;6.25;40.15
47082;BME280;33066;49.296;14.470;2023-02-02T06:55:29;96907.05;;;6.28;40.29
47082;BME280;33066;49.296;14.470;2023-02-02T06:57:55;96910.14;;;6.21;40.31
47082;BME280;33066;49.296;14.470;2023-02-02T07:00:21;96913.21;;;6.18;40.44
47082;BME280;33066;49.296;14.470;2023-02-02T07:02:46;96920.73;;;6.34;40.79
47082;BME280;33066;49.296;14.470;2023-02-02T07:05:13;96930.72;;;6.15;40.57
47082;BME280;33066;49.296;14.470;2023-02-02T07:07:37;96924.16;;;6.34;41.00
47082;BME280;33066;49.296;14.470;2023-02-02T07:10:03;96928.68;;;6.27;41.14
47082;BME280;33066;49.296;14.470;2023-02-02T07:12:28;96923.91;;;6.32;40.61
47082;BME280;33066;49.296;14.470;2023-02-02T07:14:53;96923.30;;;6.41;41.02
47082;BME280;33066;49.296;14.470;2023-02-02T07:17:19;96928.51;;;6.37;40.34
47082;BME280;33066;49.296;14.470;2023-02-02T07:19:44;96937.52;;;6.31;40.86
47082;BME280;33066;49.296;14.470;2023-02-02T07:22:10;96933.74;;;6.48;41.08
47082;BME280;33066;49.296;14.470;2023-02-02T07:24:35;96935.31;;;6.80;40.23
47082;BME280;33066;49.296;14.470;2023-02-02T07:27:01;96936.38;;;6.87;39.78
47082;BME280;33066;49.296;14.470;2023-02-02T07:29:26;96940.63;;;6.78;39.92
47082;BME280;33066;49.296;14.470;2023-02-02T07:31:51;96947.41;;;6.72;39.88
47082;BME280;33066;49.296;14.470;2023-02-02T07:34:17;96951.45;;;6.59;40.12
47082;BME280;33066;49.296;14.470;2023-02-02T07:36:43;96954.87;;;6.69;40.03
47082;BME280;33066;49.296;14.470;2023-02-02T07:39:10;96960.04;;;6.54;40.08
47082;BME280;33066;49.296;14.470;2023-02-02T07:41:35;96968.07;;;6.65;40.23
47082;BME280;33066;49.296;14.470;2023-02-02T07:43:59;96955.58;;;6.34;40.30
47082;BME280;33066;49.296;14.470;2023-02-02T07:46:25;96962.02;;;6.40;40.76
47082;BME280;33066;49.296;14.470;2023-02-02T07:48:53;96968.36;;;6.87;40.58
47082;BME280;33066;49.296;14.470;2023-02-02T07:51:16;96977.56;;;6.77;39.84
47082;BME280;33066;49.296;14.470;2023-02-02T07:53:42;96964.60;;;7.06;39.86
47082;BME280;33066;49.296;14.470;2023-02-02T07:56:09;96969.12;;;7.04;39.73
47082;BME280;33066;49.296;14.470;2023-02-02T07:58:33;96973.16;;;6.90;39.69
47082;BME280;33066;49.296;14.470;2023-02-02T08:01:00;96968.40;;;7.00;39.54
47082;BME280;33066;49.296;14.470;2023-02-02T08:03:24;96966.35;;;7.01;39.34
47082;BME280;33066;49.296;14.470;2023-02-02T08:05:49;96966.14;;;6.75;39.44
47082;BME280;33066;49.296;14.470;2023-02-02T08:08:15;96966.30;;;7.19;39.24
47082;BME280;33066;49.296;14.470;2023-02-02T08:10:46;96966.32;;;6.81;39.24
47082;BME280;33066;49.296;14.470;2023-02-02T08:13:06;96971.95;;;7.14;39.40
47082;BME280;33066;49.296;14.470;2023-02-02T08:15:31;96975.06;;;7.04;39.32
47082;BME280;33066;49.296;14.470;2023-02-02T08:17:56;96977.42;;;6.95;39.32
47082;BME280;33066;49.296;14.470;2023-02-02T08:20:22;96974.62;;;7.59;38.93
47082;BME280;33066;49.296;14.470;2023-02-02T08:22:47;96980.88;;;7.32;38.99
47082;BME280;33066;49.296;14.470;2023-02-02T08:25:13;96983.92;;;7.20;39.05
47082;BME280;33066;49.296;14.470;2023-02-02T08:27:38;96988.08;;;7.31;38.88
47082;BME280;33066;49.296;14.470;2023-02-02T08:30:05;96992.20;;;7.66;38.84
47082;BME280;33066;49.296;14.470;2023-02-02T08:32:30;96991.47;;;7.27;38.66
47082;BME280;33066;49.296;14.470;2023-02-02T08:34:55;96992.69;;;7.42;38.34
47082;BME280;33066;49.296;14.470;2023-02-02T08:37:20;96998.45;;;7.38;38.47
47082;BME280;33066;49.296;14.470;2023-02-02T08:39:46;97001.75;;;7.48;38.29
47082;BME280;33066;49.296;14.470;2023-02-02T08:42:11;97000.69;;;7.56;38.11
47082;BME280;33066;49.296;14.470;2023-02-02T08:44:37;97008.39;;;7.51;38.26
47082;BME280;33066;49.296;14.470;2023-02-02T08:47:02;97000.52;;;7.66;38.27
47082;BME280;33066;49.296;14.470;2023-02-02T08:49:28;97001.71;;;7.42;38.35
47082;BME280;33066;49.296;14.470;2023-02-02T08:51:53;97001.90;;;7.67;38.22
47082;BME280;33066;49.296;14.470;2023-02-02T08:54:19;97005.95;;;7.68;37.95
47082;BME280;33066;49.296;14.470;2023-02-02T08:56:44;97006.02;;;7.73;38.03
47082;BME280;33066;49.296;14.470;2023-02-02T08:59:10;97005.33;;;7.65;38.29
47082;BME280;33066;49.296;14.470;2023-02-02T09:01:35;97003.58;;;8.02;37.63
47082;BME280;33066;49.296;14.470;2023-02-02T09:04:02;97002.53;;;7.49;38.26
47082;BME280;33066;49.296;14.470;2023-02-02T09:06:29;97004.85;;;7.67;38.48
47082;BME280;33066;49.296;14.470;2023-02-02T09:08:52;96999.63;;;7.67;38.54
47082;BME280;33066;49.296;14.470;2023-02-02T09:11:18;96996.50;;;7.50;38.43
47082;BME280;33066;49.296;14.470;2023-02-02T09:13:44;97003.84;;;7.80;38.13
47082;BME280;33066;49.296;14.470;2023-02-02T09:16:10;97003.17;;;7.91;37.67
47082;BME280;33066;49.296;14.470;2023-02-02T09:18:33;97009.88;;;7.62;37.89
47082;BME280;33066;49.296;14.470;2023-02-02T09:21:01;97012.81;;;7.69;37.97
47082;BME280;33066;49.296;14.470;2023-02-02T09:23:24;97019.97;;;7.52;38.07
47082;BME280;33066;49.296;14.470;2023-02-02T09:25:50;97026.78;;;7.93;38.35
47082;BME280;33066;49.296;14.470;2023-02-02T09:28:16;97032.20;;;7.73;38.19
47082;BME280;33066;49.296;14.470;2023-02-02T09:30:41;97044.22;;;7.69;38.32
47082;BME280;33066;49.296;14.470;2023-02-02T09:33:07;97048.46;;;7.84;38.29
47082;BME280;33066;49.296;14.470;2023-02-02T09:35:32;97052.52;;;8.06;38.09
47082;BME280;33066;49.296;14.470;2023-02-02T09:37:58;97053.13;;;8.03;37.97
47082;BME280;33066;49.296;14.470;2023-02-02T09:40:23;97057.39;;;7.96;37.89
47082;BME280;33066;49.296;14.470;2023-02-02T09:42:57;97061.93;;;7.85;38.19
47082;BME280;33066;49.296;14.470;2023-02-02T09:45:21;97072.15;;;7.87;38.41
47082;BME280;33066;49.296;14.470;2023-02-02T09:47:50;97075.31;;;7.97;38.25
47082;BME280;33066;49.296;14.470;2023-02-02T09:50:13;97078.89;;;6.65;37.62
47082;BME280;33066;49.296;14.470;2023-02-02T09:52:35;97079.40;;;8.63;36.80
47082;BME280;33066;49.296;14.470;2023-02-02T09:54:59;97093.32;;;8.27;37.19
47082;BME280;33066;49.296;14.470;2023-02-02T09:57:26;97092.68;;;8.33;37.55
47082;BME280;33066;49.296;14.470;2023-02-02T09:59:49;97091.48;;;7.94;37.96
47082;BME280;33066;49.296;14.470;2023-02-02T10:02:17;97097.76;;;8.17;38.04
47082;BME280;33066;49.296;14.470;2023-02-02T10:04:39;97100.64;;;7.92;38.39
47082;BME280;33066;49.296;14.470;2023-02-02T10:07:07;97103.23;;;8.07;39.41
47082;BME280;33066;49.296;14.470;2023-02-02T10:09:35;97107.76;;;8.05;38.44
47082;BME280;33066;49.296;14.470;2023-02-02T10:11:56;97111.38;;;8.05;38.98
47082;BME280;33066;49.296;14.470;2023-02-02T10:14:23;97105.34;;;7.99;39.12
47082;BME280;33066;49.296;14.470;2023-02-02T10:16:45;97102.44;;;8.19;39.15
47082;BME280;33066;49.296;14.470;2023-02-02T10:19:12;97102.54;;;8.15;39.17
47082;BME280;33066;49.296;14.470;2023-02-02T10:21:42;97107.29;;;8.21;39.32
47082;BME280;33066;49.296;14.470;2023-02-02T10:24:02;97119.26;;;8.35;38.68
47082;BME280;33066;49.296;14.470;2023-02-02T10:26:31;97114.31;;;8.07;38.84
47082;BME280;33066;49.296;14.470;2023-02-02T10:29:04;97110.97;;;8.21;38.30
47082;BME280;33066;49.296;14.470;2023-02-02T10:31:24;97111.68;;;8.34;38.95
47082;BME280;33066;49.296;14.470;2023-02-02T10:33:50;97104.31;;;8.26;38.15
47082;BME280;33066;49.296;14.470;2023-02-02T10:36:15;97106.79;;;8.32;37.79
47082;BME280;33066;49.296;14.470;2023-02-02T10:38:37;97101.68;;;8.42;38.00
47082;BME280;33066;49.296;14.470;2023-02-02T10:41:05;97098.41;;;8.44;37.35
47082;BME280;33066;49.296;14.470;2023-02-02T10:43:39;97097.09;;;8.54;37.28
47082;BME280;33066;49.296;14.470;2023-02-02T10:45:50;97088.85;;;8.43;37.67
47082;BME280;33066;49.296;14.470;2023-02-02T10:48:17;97088.85;;;8.81;37.44
47082;BME280;33066;49.296;14.470;2023-02-02T10:50:45;97090.87;;;8.54;37.28
47082;BME280;33066;49.296;14.470;2023-02-02T10:53:12;97087.79;;;8.63;37.05
47082;BME280;33066;49.296;14.470;2023-02-02T10:55:38;97088.21;;;8.77;36.98
47082;BME280;33066;49.296;14.470;2023-02-02T10:58:05;97095.07;;;9.05;36.63
47082;BME280;33066;49.296;14.470;2023-02-02T11:00:29;97085.79;;;8.92;36.85
47082;BME280;33066;49.296;14.470;2023-02-02T11:02:50;97084.75;;;8.77;37.03
47082;BME280;33066;49.296;14.470;2023-02-02T11:05:19;97086.63;;;8.84;36.95
47082;BME280;33066;49.296;14.470;2023-02-02T11:07:40;97079.74;;;8.85;36.74
47082;BME280;33066;49.296;14.470;2023-02-02T11:10:06;97079.98;;;8.90;36.67
47082;BME280;33066;49.296;14.470;2023-02-02T11:12:33;97082.59;;;8.95;36.72
47082;BME280;33066;49.296;14.470;2023-02-02T11:14:59;97079.97;;;8.85;36.61
47082;BME280;33066;49.296;14.470;2023-02-02T11:17:22;97077.92;;;9.09;36.70
47082;BME280;33066;49.296;14.470;2023-02-02T11:19:47;97076.55;;;9.23;36.79
47082;BME280;33066;49.296;14.470;2023-02-02T11:22:24;97073.00;;;9.03;36.43
47082;BME280;33066;49.296;14.470;2023-02-02T11:24:46;97070.37;;;9.20;36.59
47082;BME280;33066;49.296;14.470;2023-02-02T11:27:06;97065.68;;;9.07;36.77
47082;BME280;33066;49.296;14.470;2023-02-02T11:29:30;97062.31;;;9.17;36.74
47082;BME280;33066;49.296;14.470;2023-02-02T11:31:54;97064.00;;;9.06;36.71
47082;BME280;33066;49.296;14.470;2023-02-02T11:34:21;97062.19;;;8.99;37.02
47082;BME280;33066;49.296;14.470;2023-02-02T11:39:18;97060.44;;;8.98;37.22
47082;BME280;33066;49.296;14.470;2023-02-02T11:41:35;97057.54;;;9.00;37.35
47082;BME280;33066;49.296;14.470;2023-02-02T11:44:01;97057.42;;;8.94;37.30
47082;BME280;33066;49.296;14.470;2023-02-02T11:46:28;97064.72;;;9.01;37.27
47082;BME280;33066;49.296;14.470;2023-02-02T11:48:56;97058.66;;;9.12;37.34
47082;BME280;33066;49.296;14.470;2023-02-02T11:51:22;97061.25;;;9.29;37.17
47082;BME280;33066;49.296;14.470;2023-02-02T11:53:46;97064.78;;;9.33;37.04
47082;BME280;33066;49.296;14.470;2023-02-02T11:56:16;97057.74;;;9.35;36.89
47082;BME280;33066;49.296;14.470;2023-02-02T11:58:42;97060.25;;;8.91;36.94
47082;BME280;33066;49.296;14.470;2023-02-02T12:01:00;97061.17;;;9.16;36.97
47082;BME280;33066;49.296;14.470;2023-02-02T12:03:28;97055.47;;;9.28;36.86
47082;BME280;33066;49.296;14.470;2023-02-02T12:05:50;97057.02;;;8.92;37.59
47082;BME280;33066;49.296;14.470;2023-02-02T12:08:15;97055.31;;;9.19;37.84
47082;BME280;33066;49.296;14.470;2023-02-02T12:10:42;97053.40;;;9.23;37.30
47082;BME280;33066;49.296;14.470;2023-02-02T12:13:11;97054.91;;;9.24;37.43
47082;BME280;33066;49.296;14.470;2023-02-02T12:15:38;97051.90;;;9.30;37.13
47082;BME280;33066;49.296;14.470;2023-02-02T12:18:04;97053.28;;;9.27;37.57
47082;BME280;33066;49.296;14.470;2023-02-02T12:20:32;97053.86;;;9.35;37.14
47082;BME280;33066;49.296;14.470;2023-02-02T12:23:05;97056.98;;;9.73;36.94
47082;BME280;33066;49.296;14.470;2023-02-02T12:27:43;97050.56;;;9.67;37.43
47082;BME280;33066;49.296;14.470;2023-02-02T12:30:20;97052.03;;;9.70;37.02
47082;BME280;33066;49.296;14.470;2023-02-02T12:32:42;97052.04;;;9.54;36.71
47082;BME280;33066;49.296;14.470;2023-02-02T12:35:03;97059.45;;;9.46;37.55
47082;BME280;33066;49.296;14.470;2023-02-02T12:37:30;97055.86;;;9.19;36.94
47082;BME280;33066;49.296;14.470;2023-02-02T12:39:55;97047.32;;;9.24;37.97
47082;BME280;33066;49.296;14.470;2023-02-02T12:42:22;97046.59;;;9.19;37.91
47082;BME280;33066;49.296;14.470;2023-02-02T12:44:45;97049.77;;;9.04;37.68
47082;BME280;33066;49.296;14.470;2023-02-02T12:47:11;97054.96;;;9.14;37.61
47082;BME280;33066;49.296;14.470;2023-02-02T12:49:41;97048.54;;;8.79;38.53
47082;BME280;33066;49.296;14.470;2023-02-02T12:52:04;97057.83;;;8.89;38.17
47082;BME280;33066;49.296;14.470;2023-02-02T12:54:33;97061.15;;;8.95;37.91
47082;BME280;33066;49.296;14.470;2023-02-02T12:56:50;97062.32;;;8.95;37.94
47082;BME280;33066;49.296;14.470;2023-02-02T12:59:17;97064.89;;;8.71;38.20
47082;BME280;33066;49.296;14.470;2023-02-02T13:01:47;97059.39;;;8.82;38.24